createdAt,value
2022-11-28T00:00:21.279Z,61.23
2022-11-28T00:02:45.081Z,67.47
2022-11-28T00:04:51.219Z,68.08
2022-11-28T00:06:54.684Z,66.17
2022-11-28T00:08:59.725Z,63.62
2022-11-28T00:11:07.092Z,59.76
2022-11-28T00:13:09.951Z,56.97
2022-11-28T00:15:12.876Z,55.27
2022-11-28T00:17:15.663Z,56.74
2022-11-28T00:19:18.564Z,57.79
2022-11-28T00:21:22.631Z,58.83
2022-11-28T00:23:25.616Z,60.29
2022-11-28T00:25:28.683Z,61.74
2022-11-28T00:27:33.867Z,66.77
2022-11-28T00:29:36.842Z,67.94
2022-11-28T00:31:44.888Z,67.80
2022-11-28T00:33:48.621Z,65.80
2022-11-28T00:35:51.523Z,61.48
2022-11-28T00:37:54.385Z,57.00
2022-11-28T00:39:57.838Z,54.92
2022-11-28T00:42:00.753Z,56.24
2022-11-28T00:44:03.770Z,57.22
2022-11-28T00:46:08.038Z,59.19
2022-11-28T00:48:10.939Z,60.07
2022-11-28T00:50:14.050Z,60.84
2022-11-28T00:52:16.952Z,65.58
2022-11-28T00:54:19.751Z,69.86
2022-11-28T00:56:25.382Z,65.22
2022-11-28T00:58:28.178Z,61.57
2022-11-28T01:00:31.221Z,58.78
2022-11-28T01:02:34.327Z,54.13
2022-11-28T01:04:37.206Z,54.65
2022-11-28T01:06:46.490Z,56.38
2022-11-28T01:08:49.415Z,57.34
2022-11-28T01:10:52.382Z,57.60
2022-11-28T01:12:55.183Z,59.09
2022-11-28T01:14:58.533Z,60.51
2022-11-28T01:17:01.413Z,61.23
2022-11-28T01:19:05.357Z,66.78
2022-11-28T01:21:08.720Z,69.05
2022-11-28T01:23:11.859Z,64.91
2022-11-28T01:25:14.678Z,62.40
2022-11-28T01:27:17.697Z,61.07
2022-11-28T01:29:20.643Z,56.91
2022-11-28T01:31:26.291Z,56.44
2022-11-28T01:33:29.130Z,57.58
2022-11-28T01:35:31.936Z,59.86
2022-11-28T01:37:34.746Z,60.42
2022-11-28T01:39:38.338Z,64.10
2022-11-28T01:41:41.328Z,67.49
2022-11-28T01:44:08.258Z,65.72
2022-11-28T01:46:11.154Z,62.66
2022-11-28T01:48:24.409Z,61.62
2022-11-28T01:50:29.751Z,60.52
2022-11-28T01:52:33.941Z,59.55
2022-11-28T01:54:38.978Z,57.62
2022-11-28T01:56:47.730Z,57.18
2022-11-28T01:58:54.834Z,57.98
2022-11-28T02:00:58.241Z,59.26
2022-11-28T02:03:06.730Z,60.21
2022-11-28T02:05:09.894Z,61.14
2022-11-28T02:07:13.724Z,65.04
2022-11-28T02:09:17.034Z,67.36
2022-11-28T02:11:29.056Z,65.26
2022-11-28T02:13:44.739Z,63.47
2022-11-28T02:16:31.281Z,60.72
2022-11-28T02:18:59.523Z,57.09
2022-11-28T02:21:09.011Z,56.87
2022-11-28T02:23:33.016Z,58.02
2022-11-28T02:26:00.637Z,59.03
2022-11-28T02:28:21.625Z,60.35
2022-11-28T02:30:48.703Z,60.10
2022-11-28T02:33:07.984Z,66.33
2022-11-28T02:35:25.476Z,68.17
2022-11-28T02:37:44.362Z,67.26
2022-11-28T02:39:50.269Z,64.84
2022-11-28T02:42:18.486Z,62.30
2022-11-28T02:44:56.446Z,62.07
2022-11-28T02:47:05.888Z,61.00
2022-11-28T02:49:33.394Z,61.24
2022-11-28T02:52:03.597Z,54.24
2022-11-28T02:54:10.198Z,52.54
2022-11-28T02:56:13.583Z,54.11
2022-11-28T02:58:18.651Z,55.80
2022-11-28T03:00:36.356Z,56.24
2022-11-28T03:02:39.929Z,57.19
2022-11-28T03:04:42.935Z,58.99
2022-11-28T03:07:00.040Z,60.68
2022-11-28T03:09:24.400Z,68.11
2022-11-28T03:11:42.920Z,70.57
2022-11-28T03:14:09.177Z,62.50
2022-11-28T03:16:28.978Z,59.56
2022-11-28T03:18:51.560Z,54.76
2022-11-28T03:21:02.160Z,54.68
2022-11-28T03:23:10.625Z,56.16
2022-11-28T03:25:16.149Z,57.90
2022-11-28T03:27:26.439Z,59.55
2022-11-28T03:29:37.428Z,61.35
2022-11-28T03:31:45.749Z,67.01
2022-11-28T03:33:53.962Z,71.42
2022-11-28T03:36:03.804Z,66.86
2022-11-28T03:38:18.811Z,60.44
2022-11-28T03:40:33.659Z,54.91
2022-11-28T03:42:41.561Z,53.69
2022-11-28T03:45:17.913Z,55.12
2022-11-28T03:47:24.618Z,57.70
2022-11-28T03:49:36.113Z,59.57
2022-11-28T03:52:07.780Z,61.14
2022-11-28T03:54:28.022Z,67.36
2022-11-28T03:56:36.982Z,68.89
2022-11-28T03:59:04.273Z,63.86
2022-11-28T04:01:22.171Z,62.34
2022-11-28T04:03:48.391Z,60.55
2022-11-28T04:06:05.761Z,61.96
2022-11-28T04:08:18.934Z,56.72
2022-11-28T04:10:44.141Z,54.45
2022-11-28T04:13:01.528Z,56.61
2022-11-28T04:15:17.155Z,58.89
2022-11-28T04:17:32.869Z,60.54
2022-11-28T04:19:58.598Z,67.81
2022-11-28T04:22:21.412Z,70.39
2022-11-28T04:24:30.033Z,62.69
2022-11-28T04:26:37.152Z,56.29
2022-11-28T04:28:40.284Z,54.81
2022-11-28T04:30:45.653Z,56.90
2022-11-28T04:32:52.196Z,59.89
2022-11-28T04:35:04.807Z,62.75
2022-11-28T04:37:10.033Z,69.58
2022-11-28T04:39:17.734Z,67.21
2022-11-28T04:41:26.677Z,62.60
2022-11-28T04:43:41.830Z,61.08
2022-11-28T04:45:50.146Z,61.13
2022-11-28T04:47:53.299Z,60.44
2022-11-28T04:49:56.279Z,62.03
2022-11-28T04:52:07.267Z,60.79
2022-11-28T04:54:43.001Z,56.08
2022-11-28T04:56:52.820Z,55.51
2022-11-28T04:58:56.084Z,57.15
2022-11-28T05:01:00.354Z,60.06
2022-11-28T05:03:04.789Z,65.14
2022-11-28T05:05:15.687Z,69.23
2022-11-28T05:07:18.575Z,64.39
2022-11-28T05:09:21.444Z,61.30
2022-11-28T05:11:24.886Z,60.66
2022-11-28T05:13:27.656Z,60.27
2022-11-28T05:15:30.538Z,60.31
2022-11-28T05:17:35.669Z,61.40
2022-11-28T05:19:41.842Z,60.46
2022-11-28T05:21:45.065Z,56.48
2022-11-28T05:23:48.783Z,54.95
2022-11-28T05:25:51.624Z,56.80
2022-11-28T05:27:57.498Z,58.97
2022-11-28T05:30:00.332Z,60.98
2022-11-28T05:32:04.217Z,66.31
2022-11-28T05:34:07.041Z,70.03
2022-11-28T05:36:13.331Z,65.00
2022-11-28T05:38:16.495Z,61.04
2022-11-28T05:40:19.353Z,55.54
2022-11-28T05:42:22.212Z,54.00
2022-11-28T05:44:27.239Z,56.40
2022-11-28T05:46:30.512Z,58.76
2022-11-28T05:48:33.336Z,60.53
2022-11-28T05:50:40.150Z,65.10
2022-11-28T05:52:43.048Z,69.24
2022-11-28T05:54:45.878Z,66.99
2022-11-28T05:56:48.706Z,62.05
2022-11-28T05:58:53.311Z,55.52
2022-11-28T06:00:56.083Z,54.05
2022-11-28T06:03:01.487Z,56.38
2022-11-28T06:05:27.139Z,58.54
2022-11-28T06:07:27.835Z,60.30
2022-11-28T06:09:30.630Z,65.92
2022-11-28T06:11:34.370Z,70.20
2022-11-28T06:13:37.241Z,65.30
2022-11-28T06:15:44.965Z,59.86
2022-11-28T06:17:47.756Z,56.50
2022-11-28T06:19:50.649Z,56.39
2022-11-28T06:21:53.666Z,58.40
2022-11-28T06:23:58.101Z,60.46
2022-11-28T06:26:06.348Z,65.29
2022-11-28T06:28:09.412Z,69.05
2022-11-28T06:30:12.545Z,64.39
2022-11-28T06:32:18.933Z,60.77
2022-11-28T06:34:24.870Z,56.16
2022-11-28T06:36:30.771Z,54.22
2022-11-28T06:38:33.654Z,56.45
2022-11-28T06:40:38.805Z,58.29
2022-11-28T06:42:41.557Z,60.07
2022-11-28T06:44:44.340Z,61.92
2022-11-28T06:46:47.258Z,67.95
2022-11-28T06:48:51.629Z,69.96
2022-11-28T06:50:55.023Z,65.73
2022-11-28T06:52:57.850Z,60.14
2022-11-28T06:55:00.746Z,53.67
2022-11-28T06:57:03.870Z,52.58
2022-11-28T06:59:06.891Z,55.06
2022-11-28T07:01:20.444Z,57.64
2022-11-28T07:03:23.355Z,59.32
2022-11-28T07:05:31.093Z,61.33
2022-11-28T07:07:41.741Z,66.88
2022-11-28T07:09:55.911Z,70.39
2022-11-28T07:11:58.848Z,65.63
2022-11-28T07:14:02.826Z,61.84
2022-11-28T07:16:06.236Z,59.07
2022-11-28T07:18:09.013Z,56.17
2022-11-28T07:20:12.549Z,57.39
2022-11-28T07:22:15.387Z,59.44
2022-11-28T07:24:20.037Z,60.08
2022-11-28T07:26:23.289Z,64.10
2022-11-28T07:28:27.122Z,67.24
2022-11-28T07:30:29.937Z,64.68
2022-11-28T07:32:32.706Z,63.66
2022-11-28T07:34:35.926Z,60.79
2022-11-28T07:36:38.722Z,58.19
2022-11-28T07:38:41.711Z,57.35
2022-11-28T07:40:44.456Z,58.36
2022-11-28T07:42:48.914Z,59.13
2022-11-28T07:44:51.721Z,59.68
2022-11-28T07:46:54.576Z,65.53
2022-11-28T07:48:57.474Z,68.00
2022-11-28T07:51:04.339Z,65.36
2022-11-28T07:53:07.501Z,63.69
2022-11-28T07:55:10.450Z,62.99
2022-11-28T07:57:13.608Z,63.02
2022-11-28T07:59:16.900Z,62.60
2022-11-28T08:01:22.538Z,62.68
2022-11-28T08:03:25.311Z,62.13
2022-11-28T08:05:28.157Z,61.41
2022-11-28T08:07:31.021Z,61.33
2022-11-28T08:09:33.962Z,62.40
2022-11-28T08:11:36.954Z,60.49
2022-11-28T08:13:40.248Z,59.28
2022-11-28T08:15:43.074Z,57.25
2022-11-28T08:17:46.029Z,56.94
2022-11-28T08:19:48.805Z,57.91
2022-11-28T08:21:51.684Z,59.26
2022-11-28T08:23:56.243Z,60.00
2022-11-28T08:26:03.289Z,61.31
2022-11-28T08:28:06.080Z,65.10
2022-11-28T08:30:09.685Z,66.15
2022-11-28T08:32:12.646Z,66.64
2022-11-28T08:34:15.496Z,67.02
2022-11-28T08:36:19.560Z,63.03
2022-11-28T08:38:25.340Z,54.72
2022-11-28T08:40:28.886Z,51.34
2022-11-28T08:42:31.654Z,52.42
2022-11-28T08:44:34.459Z,54.54
2022-11-28T08:46:37.278Z,56.26
2022-11-28T08:48:41.237Z,57.06
2022-11-28T08:50:50.651Z,57.69
2022-11-28T08:52:53.585Z,58.48
2022-11-28T08:54:56.472Z,58.97
2022-11-28T08:56:59.796Z,60.58
2022-11-28T08:59:02.907Z,60.98
2022-11-28T09:01:15.039Z,63.59
2022-11-28T09:03:20.173Z,65.92
2022-11-28T09:05:22.969Z,63.25
2022-11-28T09:07:25.839Z,62.42
2022-11-28T09:09:32.703Z,62.59
2022-11-28T09:11:47.085Z,62.22
2022-11-28T09:13:50.326Z,62.23
2022-11-28T09:15:53.864Z,62.13
2022-11-28T09:17:56.819Z,61.24
2022-11-28T09:19:59.591Z,60.84
2022-11-28T09:22:02.468Z,60.31
2022-11-28T09:24:06.541Z,58.89
2022-11-28T09:26:11.198Z,56.70
2022-11-28T09:28:13.945Z,57.08
2022-11-28T09:30:17.095Z,58.55
2022-11-28T09:32:19.885Z,59.51
2022-11-28T09:34:22.658Z,59.53
2022-11-28T09:36:25.543Z,60.40
2022-11-28T09:38:28.372Z,60.87
2022-11-28T09:40:42.131Z,60.85
2022-11-28T09:42:46.960Z,64.46
2022-11-28T09:45:02.857Z,64.92
2022-11-28T09:47:14.057Z,64.11
2022-11-28T09:49:39.856Z,61.85
2022-11-28T09:51:53.073Z,57.10
2022-11-28T09:54:01.471Z,56.37
2022-11-28T09:56:15.856Z,57.42
2022-11-28T09:58:32.232Z,60.21
2022-11-28T10:00:52.630Z,60.44
2022-11-28T10:03:36.364Z,64.71
2022-11-28T10:05:51.433Z,64.00
2022-11-28T10:08:29.503Z,61.00
2022-11-28T10:10:35.191Z,58.07
2022-11-28T10:12:43.135Z,57.19
2022-11-28T10:15:14.349Z,58.29
2022-11-28T10:17:23.336Z,59.41
2022-11-28T10:19:55.134Z,61.23
2022-11-28T10:22:02.250Z,62.17
2022-11-28T10:24:13.929Z,62.43
2022-11-28T10:26:32.320Z,62.79
2022-11-28T10:28:38.952Z,62.39
2022-11-28T10:30:46.467Z,58.65
2022-11-28T10:32:57.813Z,57.88
2022-11-28T10:35:04.625Z,57.97
2022-11-28T10:37:24.887Z,58.32
2022-11-28T10:39:28.409Z,59.46
2022-11-28T10:41:40.538Z,59.87
2022-11-28T10:44:08.122Z,60.75
2022-11-28T10:46:38.827Z,61.11
2022-11-28T10:49:12.153Z,61.46
2022-11-28T10:51:27.407Z,61.95
2022-11-28T10:53:38.196Z,63.27
2022-11-28T10:56:11.751Z,63.57
2022-11-28T10:58:29.606Z,57.23
2022-11-28T11:00:35.306Z,55.56
2022-11-28T11:02:45.743Z,56.15
2022-11-28T11:04:48.891Z,58.92
2022-11-28T11:07:16.232Z,59.88
2022-11-28T11:09:20.945Z,60.15
2022-11-28T11:11:32.398Z,61.49
2022-11-28T11:13:56.745Z,62.11
2022-11-28T11:16:11.714Z,63.83
2022-11-28T11:18:32.466Z,60.75
2022-11-28T11:20:39.324Z,58.09
2022-11-28T11:22:56.129Z,56.44
2022-11-28T11:25:05.602Z,54.91
2022-11-28T11:27:18.466Z,57.65
2022-11-28T11:29:37.013Z,59.65
2022-11-28T11:31:44.369Z,59.86
2022-11-28T11:33:50.554Z,60.74
2022-11-28T11:35:53.551Z,60.48
2022-11-28T11:38:27.376Z,60.77
2022-11-28T11:40:30.231Z,61.64
2022-11-28T11:42:33.587Z,62.72
2022-11-28T11:44:38.656Z,61.11
2022-11-28T11:46:55.904Z,58.24
2022-11-28T11:48:58.951Z,56.85
2022-11-28T11:51:02.105Z,57.70
2022-11-28T11:53:14.322Z,57.53
2022-11-28T11:55:18.288Z,59.29
2022-11-28T11:57:33.260Z,59.39
2022-11-28T11:59:49.646Z,60.63
2022-11-28T12:02:00.579Z,60.85
2022-11-28T12:04:23.723Z,62.21
2022-11-28T12:06:37.285Z,62.54
2022-11-28T12:09:09.072Z,61.95
2022-11-28T12:11:18.584Z,59.86
2022-11-28T12:13:27.684Z,58.38
2022-11-28T12:16:26.518Z,58.12
2022-11-28T12:19:00.711Z,59.38
2022-11-28T12:21:14.753Z,60.60
2022-11-28T12:23:38.651Z,60.79
2022-11-28T12:25:53.684Z,60.39
2022-11-28T12:29:47.035Z,63.32
2022-11-28T12:34:13.580Z,62.13
2022-11-28T12:38:11.081Z,59.42
2022-11-28T12:42:21.956Z,60.07
2022-11-28T12:45:54.763Z,60.57
2022-11-28T12:49:48.512Z,62.01
2022-11-28T12:53:45.754Z,62.69
2022-11-28T12:56:18.130Z,62.61
2022-11-28T12:58:35.737Z,62.38
2022-11-28T13:01:05.985Z,61.66
2022-11-28T13:03:12.723Z,57.31
2022-11-28T13:05:24.685Z,56.56
2022-11-28T13:08:03.262Z,56.72
2022-11-28T13:10:09.208Z,57.43
2022-11-28T13:13:07.238Z,57.71
2022-11-28T13:15:22.457Z,60.02
2022-11-28T13:17:37.428Z,59.65
2022-11-28T13:20:06.700Z,60.91
2022-11-28T13:22:27.767Z,60.97
2022-11-28T13:24:40.143Z,61.65
2022-11-28T13:27:00.179Z,61.67
2022-11-28T13:29:08.928Z,62.44
2022-11-28T13:31:26.850Z,64.23
2022-11-28T13:33:52.656Z,61.30
2022-11-28T13:35:58.617Z,58.60
2022-11-28T13:40:42.808Z,57.76
2022-11-28T13:43:06.751Z,57.13
2022-11-28T13:45:26.673Z,57.52
2022-11-28T13:47:35.388Z,58.61
2022-11-28T13:49:38.168Z,59.34
2022-11-28T13:51:41.139Z,59.88
2022-11-28T13:53:45.774Z,60.60
2022-11-28T13:55:51.154Z,61.13
2022-11-28T13:57:54.025Z,61.58
2022-11-28T14:00:07.820Z,65.22
2022-11-28T14:02:23.953Z,68.80
2022-11-28T14:04:29.372Z,65.48
2022-11-28T14:06:46.483Z,61.01
2022-11-28T14:09:08.556Z,56.46
2022-11-28T14:11:38.880Z,54.22
2022-11-28T14:14:17.065Z,55.46
2022-11-28T14:16:54.006Z,56.24
2022-11-28T14:19:14.881Z,56.85
2022-11-28T14:21:40.971Z,58.27
2022-11-28T14:23:52.741Z,59.11
2022-11-28T14:25:56.523Z,60.51
2022-11-28T14:28:02.833Z,60.93
2022-11-28T14:30:42.410Z,65.81
2022-11-28T14:32:45.259Z,68.46
2022-11-28T14:34:48.926Z,63.97
2022-11-28T14:37:20.880Z,62.18
2022-11-28T14:39:35.034Z,62.67
2022-11-28T14:42:02.748Z,60.20
2022-11-28T14:44:45.793Z,55.31
2022-11-28T14:47:07.151Z,54.69
2022-11-28T14:49:20.695Z,55.24
2022-11-28T14:51:48.367Z,56.85
2022-11-28T14:53:52.013Z,57.98
2022-11-28T14:55:54.841Z,60.24
2022-11-28T14:58:05.364Z,60.78
2022-11-28T15:00:16.461Z,66.08
2022-11-28T15:02:37.377Z,70.37
2022-11-28T15:05:07.430Z,66.17
2022-11-28T15:07:32.107Z,63.41
2022-11-28T15:09:43.915Z,60.17
2022-11-28T15:12:05.605Z,57.65
2022-11-28T15:14:14.304Z,55.69
2022-11-28T15:16:20.167Z,58.75
2022-11-28T15:18:26.271Z,59.03
2022-11-28T15:20:44.138Z,60.57
2022-11-28T15:22:47.070Z,61.56
2022-11-28T15:24:52.479Z,65.26
2022-11-28T15:26:58.723Z,71.84
2022-11-28T15:29:18.178Z,67.39
2022-11-28T15:31:23.349Z,59.30
2022-11-28T15:33:27.503Z,54.55
2022-11-28T15:35:30.831Z,54.53
2022-11-28T15:37:35.419Z,56.08
2022-11-28T15:39:40.981Z,57.86
2022-11-28T15:41:46.364Z,59.32
2022-11-28T15:43:49.647Z,60.77
2022-11-28T15:45:58.649Z,61.11
2022-11-28T15:48:02.199Z,66.18
2022-11-28T15:50:19.596Z,70.39
2022-11-28T15:52:22.372Z,66.11
2022-11-28T15:54:41.395Z,62.92
2022-11-28T15:56:57.361Z,59.74
2022-11-28T15:59:00.377Z,55.48
2022-11-28T16:01:33.544Z,54.32
2022-11-28T16:03:49.293Z,55.80
2022-11-28T16:05:54.631Z,58.73
2022-11-28T16:07:57.513Z,58.13
2022-11-28T16:10:04.719Z,59.81
2022-11-28T16:12:14.322Z,60.73
2022-11-28T16:14:26.273Z,68.20
2022-11-28T16:16:35.658Z,70.68
2022-11-28T16:18:43.419Z,64.74
2022-11-28T16:20:46.704Z,60.60
2022-11-28T16:22:49.639Z,57.09
2022-11-28T16:24:57.379Z,55.44
2022-11-28T16:27:05.764Z,56.60
2022-11-28T16:29:08.446Z,57.45
2022-11-28T16:31:12.525Z,57.92
2022-11-28T16:33:34.951Z,59.76
2022-11-28T16:35:39.008Z,60.85
2022-11-28T16:37:41.793Z,65.14
2022-11-28T16:39:44.958Z,70.94
2022-11-28T16:42:07.562Z,68.43
2022-11-28T16:44:14.504Z,64.82
2022-11-28T16:46:21.551Z,61.20
2022-11-28T16:48:27.208Z,53.39
2022-11-28T16:50:30.015Z,50.84
2022-11-28T16:52:32.963Z,52.59
2022-11-28T16:54:35.779Z,54.60
2022-11-28T16:56:38.537Z,55.54
2022-11-28T16:58:41.540Z,56.83
2022-11-28T17:00:50.383Z,56.95
2022-11-28T17:02:53.615Z,59.10
2022-11-28T17:04:57.756Z,60.65
2022-11-28T17:07:05.737Z,67.38
2022-11-28T17:09:11.948Z,72.04
2022-11-28T17:11:16.965Z,63.58
2022-11-28T17:13:19.763Z,60.03
2022-11-28T17:15:23.641Z,55.77
2022-11-28T17:17:27.932Z,53.16
2022-11-28T17:19:30.780Z,54.65
2022-11-28T17:21:39.252Z,57.03
2022-11-28T17:23:42.650Z,59.17
2022-11-28T17:25:45.410Z,60.22
2022-11-28T17:27:48.301Z,60.86
2022-11-28T17:29:51.169Z,65.94
2022-11-28T17:31:57.236Z,70.63
2022-11-28T17:34:00.033Z,67.00
2022-11-28T17:36:04.037Z,64.27
2022-11-28T17:38:06.903Z,60.79
2022-11-28T17:40:28.711Z,60.70
2022-11-28T17:42:31.957Z,60.41
2022-11-28T17:44:37.644Z,60.15
2022-11-28T17:46:40.453Z,59.46
2022-11-28T17:48:43.252Z,57.31
2022-11-28T17:50:48.670Z,58.30
2022-11-28T17:52:51.474Z,58.35
2022-11-28T17:55:00.857Z,59.66
2022-11-28T17:57:06.443Z,62.04
2022-11-28T17:59:11.773Z,68.61
2022-11-28T18:01:18.623Z,70.01
2022-11-28T18:03:21.875Z,67.83
2022-11-28T18:05:24.627Z,65.30
2022-11-28T18:07:27.634Z,63.53
2022-11-28T18:09:30.461Z,62.62
2022-11-28T18:11:33.319Z,61.61
2022-11-28T18:13:36.524Z,60.68
2022-11-28T18:15:39.815Z,60.00
2022-11-28T18:17:42.555Z,59.91
2022-11-28T18:19:46.984Z,60.27
2022-11-28T18:21:50.015Z,60.29
2022-11-28T18:23:53.005Z,60.48
2022-11-28T18:25:56.216Z,60.16
2022-11-28T18:27:59.409Z,60.84
2022-11-28T18:30:02.267Z,61.86
2022-11-28T18:32:05.049Z,55.50
2022-11-28T18:34:09.657Z,52.80
2022-11-28T18:36:15.221Z,54.00
2022-11-28T18:38:18.036Z,56.13
2022-11-28T18:40:20.813Z,57.75
2022-11-28T18:42:24.120Z,58.85
2022-11-28T18:44:27.048Z,58.43
2022-11-28T18:46:31.017Z,62.04
2022-11-28T18:48:37.649Z,69.11
2022-11-28T18:50:40.583Z,69.87
2022-11-28T18:52:43.324Z,66.48
2022-11-28T18:54:46.283Z,65.74
2022-11-28T18:56:49.496Z,62.79
2022-11-28T18:58:54.182Z,56.76
2022-11-28T19:00:57.168Z,53.84
2022-11-28T19:02:59.910Z,54.27
2022-11-28T19:05:02.766Z,56.46
2022-11-28T19:07:05.623Z,58.56
2022-11-28T19:09:12.418Z,59.15
2022-11-28T19:11:17.217Z,61.08
2022-11-28T19:13:20.272Z,62.02
2022-11-28T19:15:23.074Z,67.29
2022-11-28T19:17:25.977Z,72.69
2022-11-28T19:19:28.985Z,68.71
2022-11-28T19:21:34.676Z,64.09
2022-11-28T19:23:38.681Z,59.07
2022-11-28T19:25:42.607Z,55.24
2022-11-28T19:27:45.354Z,55.75
2022-11-28T19:29:48.176Z,57.83
2022-11-28T19:31:51.216Z,58.79
2022-11-28T19:34:06.643Z,60.16
2022-11-28T19:36:11.906Z,61.75
2022-11-28T19:38:14.756Z,67.18
2022-11-28T19:40:17.685Z,71.86
2022-11-28T19:42:20.622Z,66.60
2022-11-28T19:44:24.824Z,62.32
2022-11-28T19:46:31.884Z,59.40
2022-11-28T19:48:39.745Z,54.18
2022-11-28T19:50:49.226Z,54.15
2022-11-28T19:52:51.987Z,55.97
2022-11-28T19:54:54.836Z,58.42
2022-11-28T19:56:57.661Z,59.63
2022-11-28T19:59:00.823Z,61.06
2022-11-28T20:01:33.105Z,65.67
2022-11-28T20:03:37.826Z,69.76
2022-11-28T20:05:41.855Z,65.73
2022-11-28T20:07:44.823Z,63.12
2022-11-28T20:09:48.171Z,62.21
2022-11-28T20:11:50.987Z,59.67
2022-11-28T20:13:57.801Z,54.60
2022-11-28T20:16:04.792Z,54.66
2022-11-28T20:18:07.760Z,56.28
2022-11-28T20:20:11.011Z,57.75
2022-11-28T20:22:13.916Z,60.08
2022-11-28T20:24:16.683Z,61.12
2022-11-28T20:26:23.071Z,65.67
2022-11-28T20:28:26.027Z,67.87
2022-11-28T20:30:28.850Z,68.46
2022-11-28T20:32:31.624Z,65.01
2022-11-28T20:34:34.340Z,60.77
2022-11-28T20:36:37.274Z,59.14
2022-11-28T20:38:40.038Z,54.44
2022-11-28T20:40:42.753Z,54.37
2022-11-28T20:42:45.571Z,55.94
2022-11-28T20:44:48.296Z,57.03
2022-11-28T20:46:51.450Z,59.97
2022-11-28T20:48:56.704Z,62.71
2022-11-28T20:50:59.511Z,70.40
2022-11-28T20:53:02.440Z,66.28
2022-11-28T20:55:05.718Z,63.01
2022-11-28T20:57:23.717Z,57.08
2022-11-28T20:59:26.723Z,53.62
2022-11-28T21:01:33.436Z,55.88
2022-11-28T21:03:37.113Z,57.24
2022-11-28T21:05:40.076Z,59.27
2022-11-28T21:07:42.858Z,60.67
2022-11-28T21:09:45.718Z,60.43
2022-11-28T21:11:58.568Z,61.52
2022-11-28T21:14:02.912Z,69.19
2022-11-28T21:16:08.143Z,72.25
2022-11-28T21:18:12.838Z,65.66
2022-11-28T21:20:15.578Z,64.40
2022-11-28T21:22:18.464Z,59.20
2022-11-28T21:24:21.295Z,54.33
2022-11-28T21:26:30.124Z,53.88
2022-11-28T21:28:39.062Z,55.49
2022-11-28T21:30:44.174Z,56.98
2022-11-28T21:32:47.632Z,58.35
2022-11-28T21:34:50.412Z,59.46
2022-11-28T21:36:53.989Z,60.67
2022-11-28T21:39:01.796Z,65.25
2022-11-28T21:41:04.634Z,70.28
2022-11-28T21:43:07.433Z,66.71
2022-11-28T21:45:10.618Z,64.30
2022-11-28T21:47:13.456Z,61.90
2022-11-28T21:49:17.242Z,58.80
2022-11-28T21:51:22.788Z,55.55
2022-11-28T21:53:26.651Z,56.67
2022-11-28T21:55:29.407Z,57.66
2022-11-28T21:57:32.241Z,59.07
2022-11-28T21:59:35.031Z,64.27
2022-11-28T22:01:37.926Z,70.74
2022-11-28T22:03:41.927Z,67.82
2022-11-28T22:05:44.935Z,62.47
2022-11-28T22:07:47.787Z,56.76
2022-11-28T22:09:50.628Z,53.48
2022-11-28T22:11:53.313Z,55.37
2022-11-28T22:13:56.054Z,56.21
2022-11-28T22:15:58.808Z,57.75
2022-11-28T22:18:01.624Z,59.83
2022-11-28T22:20:06.110Z,61.92
2022-11-28T22:22:08.940Z,67.95
2022-11-28T22:24:12.259Z,70.73
2022-11-28T22:26:15.636Z,65.34
2022-11-28T22:28:18.440Z,63.66
2022-11-28T22:30:21.420Z,62.21
2022-11-28T22:32:24.415Z,60.92
2022-11-28T22:34:27.399Z,59.62
2022-11-28T22:36:32.198Z,57.66
2022-11-28T22:38:35.057Z,57.52
2022-11-28T22:40:38.080Z,57.80
2022-11-28T22:42:41.029Z,59.49
2022-11-28T22:44:44.198Z,62.21
2022-11-28T22:46:47.405Z,67.15
2022-11-28T22:48:51.970Z,69.58
2022-11-28T22:50:54.961Z,67.09
2022-11-28T22:52:57.709Z,67.96
2022-11-28T22:55:00.480Z,62.86
2022-11-28T22:57:03.409Z,55.57
2022-11-28T22:59:11.104Z,52.38
2022-11-28T23:01:17.681Z,54.00
2022-11-28T23:03:20.563Z,57.24
2022-11-28T23:05:23.818Z,57.56
2022-11-28T23:07:26.664Z,59.56
2022-11-28T23:09:29.633Z,60.57
2022-11-28T23:11:34.261Z,62.71
2022-11-28T23:13:38.118Z,72.46
2022-11-28T23:15:44.439Z,69.19
2022-11-28T23:17:50.230Z,62.80
2022-11-28T23:19:53.069Z,55.00
2022-11-28T23:21:55.958Z,53.63
2022-11-28T23:23:58.791Z,56.29
2022-11-28T23:26:10.115Z,58.07
2022-11-28T23:28:12.886Z,59.34
2022-11-28T23:30:15.731Z,60.49
2022-11-28T23:32:18.503Z,66.30
2022-11-28T23:34:21.284Z,69.39
2022-11-28T23:36:49.086Z,63.10
2022-11-28T23:38:55.262Z,63.51
2022-11-28T23:40:58.221Z,60.47
2022-11-28T23:43:01.140Z,59.57
2022-11-28T23:45:04.281Z,57.36
2022-11-28T23:47:07.102Z,56.45
2022-11-28T23:49:10.533Z,57.78
2022-11-28T23:51:19.001Z,59.23
2022-11-28T23:53:22.150Z,59.92
2022-11-28T23:55:24.901Z,60.84
2022-11-28T23:57:28.788Z,66.46
2022-11-28T23:59:31.718Z,71.04
